Tuktoyaktuk / James Gruben Airport

CYUB · 加拿大

罗盘
风向 的 风向 130° Tuktoyaktuk / James Gruben Airport 9/27
风: 13 kt, 4 beaufort

13 kt

1 kt
改变
0 ft 1.000 2.000 3.000 4.000 5.000
Cloud Cloud Cloud Cloud Cloud Cloud Cloud Cloud
OVC 2.100
METAR CYUB 172200Z 13013KT 10SM OVC021 15/13 A2974 RMK SC8 CIG RAG SLP072

METAR Tuktoyaktuk / James Gruben Airport - CYUB/YUB

该字段位于加拿大中。 该机场位于纬度69,43330和经度-133,02600。 该机场有一条跑道: 9/27. 本场的ICAO机场代码为CYUB。 该机场的IATA代码为YUB。 机场在Edmonton FIR中。

该航空气象观测是针对Tuktoyaktuk / James Gruben Airport在2024年7月17日 16:00, 当地时间进行的。

机场观察

风向为130°,速度为13 kt。

可见度为10 mi。

有乌云密布在2.100 ft的高度。 破损或更高的上限为2.100 ft。

温度和风寒是15 °C。 露点为13 °C,相对湿度为88%。 海平面上的气压为29,74 inHg (QNH)。

白天

今天,太阳从17:00升起,在17:00降落。 这适用于Tuktoyaktuk / James Gruben Airport,世界夏令时可能有所不同。 当地时间与世界标准时间之间的时差为-6 小时。 夏令时目前正在进行中。

公司介绍

我们没有关于这个机场的公司信息。

体会

到Vliegles.nl去找飞行课程,跳伞和其他飞行体验。 浏览页面,了解Tuktoyaktuk / James Gruben Airport附近所有可用的活动。 你也可以使用搜索功能来寻找你所在地附近的特定飞行课程、跳伞或其他飞行体验。

跑道

Id 标题 侧风 逆风 侧风 %
9/27 124°-304° 1 kt 13 kt 10 %

逆风成分最大的方向会被突出显示,并用于横风计算。 这并不一定意味着这个方向在使用。

乌云

2.100 ft OVC 乌云密布

温度 & 天气

温度 15 °C
露点 13 °C
相对湿度 88%
Kp-index 0 (0-9)

评论

SLP072海平面压力为29,74 inHg (29,74 inHg)
SC8 CIG RAG

小工具

你想在你的网站上有一个关于Tuktoyaktuk / James Gruben Airport的当前航空天气(METAR)的小部件吗?

显示HTML代码
报告变更